sensor_id;sensor_type;location;lat;lon;timestamp;pressure;altitude;pressure_sealevel;temperature;humidity
82807;BME280;72563;44.816;20.484;2024-02-23T00:02:09;99732.16;;;13.99;37.22
82807;BME280;72563;44.816;20.484;2024-02-23T00:04:34;99725.72;;;14.11;36.89
82807;BME280;72563;44.816;20.484;2024-02-23T00:07:00;99726.00;;;14.06;37.33
82807;BME280;72563;44.816;20.484;2024-02-23T00:09:28;99724.31;;;14.17;37.00
82807;BME280;72563;44.816;20.484;2024-02-23T00:11:53;99726.88;;;14.26;37.08
82807;BME280;72563;44.816;20.484;2024-02-23T00:14:19;99737.59;;;14.11;36.82
82807;BME280;72563;44.816;20.484;2024-02-23T00:16:46;99724.94;;;14.10;36.49
82807;BME280;72563;44.816;20.484;2024-02-23T00:19:12;99720.63;;;14.13;37.30
82807;BME280;72563;44.816;20.484;2024-02-23T00:21:38;99729.84;;;14.17;36.45
82807;BME280;72563;44.816;20.484;2024-02-23T00:24:05;99715.47;;;14.11;36.80
82807;BME280;72563;44.816;20.484;2024-02-23T00:26:31;99715.47;;;14.11;36.61
82807;BME280;72563;44.816;20.484;2024-02-23T00:28:57;99722.63;;;14.12;36.78
82807;BME280;72563;44.816;20.484;2024-02-23T00:31:22;99719.75;;;14.09;36.75
82807;BME280;72563;44.816;20.484;2024-02-23T00:33:48;99717.69;;;14.06;37.70
82807;BME280;72563;44.816;20.484;2024-02-23T00:36:14;99707.97;;;14.12;37.11
82807;BME280;72563;44.816;20.484;2024-02-23T00:38:40;99710.13;;;14.19;36.56
82807;BME280;72563;44.816;20.484;2024-02-23T00:41:05;99710.81;;;14.15;36.90
82807;BME280;72563;44.816;20.484;2024-02-23T00:43:40;99716.34;;;14.00;37.24
82807;BME280;72563;44.816;20.484;2024-02-23T00:46:09;99715.19;;;14.01;37.25
82807;BME280;72563;44.816;20.484;2024-02-23T00:48:38;99709.41;;;14.06;36.78
82807;BME280;72563;44.816;20.484;2024-02-23T00:51:03;99710.00;;;14.15;36.58
82807;BME280;72563;44.816;20.484;2024-02-23T00:53:31;99708.78;;;14.12;36.64
82807;BME280;72563;44.816;20.484;2024-02-23T00:55:57;99709.31;;;14.18;36.70
82807;BME280;72563;44.816;20.484;2024-02-23T00:58:23;99717.09;;;14.12;36.75
82807;BME280;72563;44.816;20.484;2024-02-23T01:00:48;99719.03;;;13.96;36.83
82807;BME280;72563;44.816;20.484;2024-02-23T01:03:14;99709.03;;;14.07;36.57
82807;BME280;72563;44.816;20.484;2024-02-23T01:05:39;99711.97;;;13.99;37.53
82807;BME280;72563;44.816;20.484;2024-02-23T01:08:05;99719.41;;;14.10;36.87
82807;BME280;72563;44.816;20.484;2024-02-23T01:10:30;99711.09;;;14.10;37.02
82807;BME280;72563;44.816;20.484;2024-02-23T01:12:57;99710.91;;;14.03;36.77
82807;BME280;72563;44.816;20.484;2024-02-23T01:15:22;99711.53;;;14.12;37.15
82807;BME280;72563;44.816;20.484;2024-02-23T01:17:48;99715.47;;;14.11;36.49
82807;BME280;72563;44.816;20.484;2024-02-23T01:20:14;99710.28;;;14.10;36.80
82807;BME280;72563;44.816;20.484;2024-02-23T01:22:39;99691.44;;;14.00;36.59
82807;BME280;72563;44.816;20.484;2024-02-23T01:25:05;99697.00;;;14.00;37.32
82807;BME280;72563;44.816;20.484;2024-02-23T01:27:31;99700.72;;;14.07;37.32
82807;BME280;72563;44.816;20.484;2024-02-23T01:29:56;99701.47;;;14.04;36.85
82807;BME280;72563;44.816;20.484;2024-02-23T01:32:22;99693.31;;;14.11;37.22
82807;BME280;72563;44.816;20.484;2024-02-23T01:34:48;99700.66;;;14.04;36.93
82807;BME280;72563;44.816;20.484;2024-02-23T01:37:13;99693.31;;;13.96;37.25
82807;BME280;72563;44.816;20.484;2024-02-23T01:39:39;99690.19;;;13.97;37.28
82807;BME280;72563;44.816;20.484;2024-02-23T01:42:04;99673.78;;;14.04;37.17
82807;BME280;72563;44.816;20.484;2024-02-23T01:44:30;99676.91;;;13.87;36.94
82807;BME280;72563;44.816;20.484;2024-02-23T01:46:55;99687.72;;;13.92;37.11
82807;BME280;72563;44.816;20.484;2024-02-23T01:49:21;99690.19;;;13.97;37.30
82807;BME280;72563;44.816;20.484;2024-02-23T01:51:48;99695.28;;;14.11;36.71
82807;BME280;72563;44.816;20.484;2024-02-23T01:54:16;99687.78;;;14.11;37.06
82807;BME280;72563;44.816;20.484;2024-02-23T01:56:41;99688.97;;;14.10;37.01
82807;BME280;72563;44.816;20.484;2024-02-23T01:59:10;99690.56;;;14.11;37.25
82807;BME280;72563;44.816;20.484;2024-02-23T02:01:36;99675.00;;;14.07;36.59
82807;BME280;72563;44.816;20.484;2024-02-23T02:04:02;99677.78;;;14.07;36.37
82807;BME280;72563;44.816;20.484;2024-02-23T02:06:27;99687.88;;;14.15;36.78
82807;BME280;72563;44.816;20.484;2024-02-23T02:08:54;99683.88;;;14.12;36.63
82807;BME280;72563;44.816;20.484;2024-02-23T02:11:20;99693.75;;;14.13;36.35
82807;BME280;72563;44.816;20.484;2024-02-23T02:13:45;99684.22;;;13.95;36.80
82807;BME280;72563;44.816;20.484;2024-02-23T02:16:11;99673.16;;;13.80;36.91
82807;BME280;72563;44.816;20.484;2024-02-23T02:18:36;99667.25;;;13.81;37.15
82807;BME280;72563;44.816;20.484;2024-02-23T02:21:02;99679.75;;;13.75;36.98
82807;BME280;72563;44.816;20.484;2024-02-23T02:23:28;99672.06;;;13.69;37.42
82807;BME280;72563;44.816;20.484;2024-02-23T02:25:57;99674.47;;;13.70;37.29
82807;BME280;72563;44.816;20.484;2024-02-23T02:28:24;99649.75;;;13.77;36.94
82807;BME280;72563;44.816;20.484;2024-02-23T02:30:50;99661.47;;;13.86;37.17
82807;BME280;72563;44.816;20.484;2024-02-23T02:33:16;99671.44;;;13.91;37.25
82807;BME280;72563;44.816;20.484;2024-02-23T02:35:42;99674.56;;;14.05;37.27
82807;BME280;72563;44.816;20.484;2024-02-23T02:38:08;99676.72;;;14.11;37.42
82807;BME280;72563;44.816;20.484;2024-02-23T02:40:33;99663.25;;;13.94;36.83
82807;BME280;72563;44.816;20.484;2024-02-23T02:42:59;99661.09;;;13.88;37.23
82807;BME280;72563;44.816;20.484;2024-02-23T02:45:24;99665.38;;;13.85;37.04
82807;BME280;72563;44.816;20.484;2024-02-23T02:47:50;99661.88;;;13.73;37.28
82807;BME280;72563;44.816;20.484;2024-02-23T02:50:15;99658.44;;;13.76;37.19
82807;BME280;72563;44.816;20.484;2024-02-23T02:52:41;99664.94;;;13.83;38.27
82807;BME280;72563;44.816;20.484;2024-02-23T02:55:07;99673.31;;;13.87;37.58
82807;BME280;72563;44.816;20.484;2024-02-23T02:57:33;99664.47;;;13.66;37.94
82807;BME280;72563;44.816;20.484;2024-02-23T03:00:02;99677.41;;;13.77;37.72
82807;BME280;72563;44.816;20.484;2024-02-23T03:02:30;99647.25;;;13.72;37.80
82807;BME280;72563;44.816;20.484;2024-02-23T03:04:57;99675.53;;;13.66;37.92
82807;BME280;72563;44.816;20.484;2024-02-23T03:07:22;99666.34;;;13.62;38.62
82807;BME280;72563;44.816;20.484;2024-02-23T03:09:48;99669.38;;;13.72;37.98
82807;BME280;72563;44.816;20.484;2024-02-23T03:12:16;99669.91;;;13.62;38.12
82807;BME280;72563;44.816;20.484;2024-02-23T03:14:42;99660.00;;;13.46;38.79
82807;BME280;72563;44.816;20.484;2024-02-23T03:17:08;99660.25;;;13.56;38.55
82807;BME280;72563;44.816;20.484;2024-02-23T03:19:37;99656.72;;;13.71;38.46
82807;BME280;72563;44.816;20.484;2024-02-23T03:22:03;99655.09;;;13.70;39.49
82807;BME280;72563;44.816;20.484;2024-02-23T03:24:28;99655.28;;;13.62;38.58
82807;BME280;72563;44.816;20.484;2024-02-23T03:26:54;99658.25;;;13.84;38.19
82807;BME280;72563;44.816;20.484;2024-02-23T03:29:21;99651.41;;;13.35;38.87
82807;BME280;72563;44.816;20.484;2024-02-23T03:31:50;99643.63;;;13.25;39.32
82807;BME280;72563;44.816;20.484;2024-02-23T03:34:16;99634.03;;;13.50;39.07
82807;BME280;72563;44.816;20.484;2024-02-23T03:36:42;99642.00;;;13.52;38.99
82807;BME280;72563;44.816;20.484;2024-02-23T03:39:08;99635.13;;;13.61;38.82
82807;BME280;72563;44.816;20.484;2024-02-23T03:41:34;99636.09;;;13.53;39.08
82807;BME280;72563;44.816;20.484;2024-02-23T03:44:00;99643.06;;;13.63;38.98
82807;BME280;72563;44.816;20.484;2024-02-23T03:46:26;99647.03;;;13.34;39.40
82807;BME280;72563;44.816;20.484;2024-02-23T03:48:51;99651.88;;;13.53;39.51
82807;BME280;72563;44.816;20.484;2024-02-23T03:51:17;99641.94;;;13.36;39.18
82807;BME280;72563;44.816;20.484;2024-02-23T03:53:43;99662.66;;;13.42;39.39
82807;BME280;72563;44.816;20.484;2024-02-23T03:56:09;99662.41;;;13.19;39.94
82807;BME280;72563;44.816;20.484;2024-02-23T03:58:34;99654.03;;;13.44;39.82
82807;BME280;72563;44.816;20.484;2024-02-23T04:01:00;99659.78;;;13.39;39.93
82807;BME280;72563;44.816;20.484;2024-02-23T04:03:26;99665.22;;;13.35;40.19
82807;BME280;72563;44.816;20.484;2024-02-23T04:05:51;99657.13;;;13.42;39.84
82807;BME280;72563;44.816;20.484;2024-02-23T04:08:17;99660.69;;;13.43;39.79
82807;BME280;72563;44.816;20.484;2024-02-23T04:10:46;99661.69;;;13.50;39.86
82807;BME280;72563;44.816;20.484;2024-02-23T04:13:11;99662.41;;;13.47;40.14
82807;BME280;72563;44.816;20.484;2024-02-23T04:15:39;99669.44;;;13.45;40.17
82807;BME280;72563;44.816;20.484;2024-02-23T04:18:05;99660.91;;;13.65;40.24
82807;BME280;72563;44.816;20.484;2024-02-23T04:20:31;99658.78;;;13.74;39.46
82807;BME280;72563;44.816;20.484;2024-02-23T04:22:57;99655.09;;;13.55;40.21
82807;BME280;72563;44.816;20.484;2024-02-23T04:25:22;99642.78;;;13.52;40.15
82807;BME280;72563;44.816;20.484;2024-02-23T04:27:48;99643.78;;;13.60;39.84
82807;BME280;72563;44.816;20.484;2024-02-23T04:30:14;99642.53;;;13.57;39.95
82807;BME280;72563;44.816;20.484;2024-02-23T04:32:39;99639.47;;;13.62;40.28
82807;BME280;72563;44.816;20.484;2024-02-23T04:35:05;99643.59;;;13.99;39.97
82807;BME280;72563;44.816;20.484;2024-02-23T04:37:31;99638.81;;;13.96;39.58
82807;BME280;72563;44.816;20.484;2024-02-23T04:39:56;99636.91;;;14.00;39.30
82807;BME280;72563;44.816;20.484;2024-02-23T04:42:22;99629.13;;;14.06;39.92
82807;BME280;72563;44.816;20.484;2024-02-23T04:44:47;99626.47;;;13.94;39.98
82807;BME280;72563;44.816;20.484;2024-02-23T04:47:14;99629.50;;;13.58;40.66
82807;BME280;72563;44.816;20.484;2024-02-23T04:49:41;99622.03;;;13.74;40.32
82807;BME280;72563;44.816;20.484;2024-02-23T04:52:07;99630.75;;;13.60;40.38
82807;BME280;72563;44.816;20.484;2024-02-23T04:54:34;99628.63;;;13.54;40.71
82807;BME280;72563;44.816;20.484;2024-02-23T04:57:00;99633.69;;;13.83;40.13
82807;BME280;72563;44.816;20.484;2024-02-23T04:59:26;99635.56;;;13.79;40.31
82807;BME280;72563;44.816;20.484;2024-02-23T05:01:51;99633.53;;;13.76;40.18
82807;BME280;72563;44.816;20.484;2024-02-23T05:04:17;99625.75;;;13.97;40.15
82807;BME280;72563;44.816;20.484;2024-02-23T05:06:42;99635.56;;;13.79;40.20
82807;BME280;72563;44.816;20.484;2024-02-23T05:09:09;99636.72;;;13.62;40.75
82807;BME280;72563;44.816;20.484;2024-02-23T05:11:35;99643.16;;;13.82;40.32
82807;BME280;72563;44.816;20.484;2024-02-23T05:14:00;99640.13;;;14.02;40.57
82807;BME280;72563;44.816;20.484;2024-02-23T05:16:26;99625.94;;;13.88;39.78
82807;BME280;72563;44.816;20.484;2024-02-23T05:18:51;99639.56;;;13.97;39.70
82807;BME280;72563;44.816;20.484;2024-02-23T05:21:17;99641.28;;;14.01;39.33
82807;BME280;72563;44.816;20.484;2024-02-23T05:23:43;99622.63;;;13.83;40.06
82807;BME280;72563;44.816;20.484;2024-02-23T05:26:08;99645.22;;;14.00;40.08
82807;BME280;72563;44.816;20.484;2024-02-23T05:28:35;99647.81;;;13.78;40.22
82807;BME280;72563;44.816;20.484;2024-02-23T05:31:02;99644.47;;;13.72;40.13
82807;BME280;72563;44.816;20.484;2024-02-23T05:33:29;99641.47;;;13.77;39.93
82807;BME280;72563;44.816;20.484;2024-02-23T05:35:54;99649.97;;;13.84;39.94
82807;BME280;72563;44.816;20.484;2024-02-23T05:38:20;99653.41;;;13.97;40.21
82807;BME280;72563;44.816;20.484;2024-02-23T05:40:45;99654.06;;;13.90;39.87
82807;BME280;72563;44.816;20.484;2024-02-23T05:43:11;99661.91;;;14.04;39.96
82807;BME280;72563;44.816;20.484;2024-02-23T05:45:38;99661.97;;;14.07;40.02
82807;BME280;72563;44.816;20.484;2024-02-23T05:48:04;99659.75;;;13.97;40.04
82807;BME280;72563;44.816;20.484;2024-02-23T05:50:29;99669.84;;;13.90;40.01
82807;BME280;72563;44.816;20.484;2024-02-23T05:52:55;99664.56;;;13.69;40.29
82807;BME280;72563;44.816;20.484;2024-02-23T05:55:20;99665.22;;;13.78;40.20
82807;BME280;72563;44.816;20.484;2024-02-23T05:57:46;99665.75;;;13.99;40.05
82807;BME280;72563;44.816;20.484;2024-02-23T06:00:12;99648.09;;;13.88;39.90
82807;BME280;72563;44.816;20.484;2024-02-23T06:02:38;99655.19;;;14.05;40.28
82807;BME280;72563;44.816;20.484;2024-02-23T06:05:04;99649.84;;;13.81;40.30
82807;BME280;72563;44.816;20.484;2024-02-23T06:07:33;99657.06;;;14.01;40.07
82807;BME280;72563;44.816;20.484;2024-02-23T06:09:58;99641.56;;;13.96;40.18
82807;BME280;72563;44.816;20.484;2024-02-23T06:12:24;99659.75;;;13.97;40.06
82807;BME280;72563;44.816;20.484;2024-02-23T06:14:51;99650.66;;;13.81;40.60
82807;BME280;72563;44.816;20.484;2024-02-23T06:17:16;99655.56;;;13.88;40.30
82807;BME280;72563;44.816;20.484;2024-02-23T06:19:43;99650.31;;;13.98;40.16
82807;BME280;72563;44.816;20.484;2024-02-23T06:22:09;99662.72;;;14.04;40.09
82807;BME280;72563;44.816;20.484;2024-02-23T06:24:36;99664.59;;;14.00;40.07
82807;BME280;72563;44.816;20.484;2024-02-23T06:27:01;99664.22;;;14.02;40.04
82807;BME280;72563;44.816;20.484;2024-02-23T06:29:29;99667.72;;;14.14;40.32
82807;BME280;72563;44.816;20.484;2024-02-23T06:31:55;99655.28;;;13.93;40.54
82807;BME280;72563;44.816;20.484;2024-02-23T06:34:21;99657.50;;;14.03;40.32
82807;BME280;72563;44.816;20.484;2024-02-23T06:36:47;99649.50;;;13.98;40.24
82807;BME280;72563;44.816;20.484;2024-02-23T06:39:12;99676.34;;;14.13;40.32
82807;BME280;72563;44.816;20.484;2024-02-23T06:41:38;99676.16;;;14.22;40.25
82807;BME280;72563;44.816;20.484;2024-02-23T06:44:05;99654.41;;;14.04;40.44
82807;BME280;72563;44.816;20.484;2024-02-23T06:46:30;99682.06;;;14.20;40.67
82807;BME280;72563;44.816;20.484;2024-02-23T06:48:56;99683.44;;;14.10;41.20
82807;BME280;72563;44.816;20.484;2024-02-23T06:51:21;99699.41;;;14.17;40.91
82807;BME280;72563;44.816;20.484;2024-02-23T06:53:48;99694.31;;;14.35;40.96
82807;BME280;72563;44.816;20.484;2024-02-23T06:56:13;99690.91;;;14.26;41.37
82807;BME280;72563;44.816;20.484;2024-02-23T06:58:39;99701.63;;;14.27;41.64
82807;BME280;72563;44.816;20.484;2024-02-23T07:01:05;99703.00;;;14.33;41.67
82807;BME280;72563;44.816;20.484;2024-02-23T07:03:37;99683.06;;;14.12;41.40
82807;BME280;72563;44.816;20.484;2024-02-23T07:06:03;99703.53;;;14.39;41.35
82807;BME280;72563;44.816;20.484;2024-02-23T07:08:29;99704.16;;;14.32;41.80
82807;BME280;72563;44.816;20.484;2024-02-23T07:10:55;99702.41;;;14.28;42.06
82807;BME280;72563;44.816;20.484;2024-02-23T07:13:21;99701.63;;;14.43;41.65
82807;BME280;72563;44.816;20.484;2024-02-23T07:15:47;99698.25;;;14.49;41.22
82807;BME280;72563;44.816;20.484;2024-02-23T07:18:13;99691.63;;;14.38;41.18
82807;BME280;72563;44.816;20.484;2024-02-23T07:20:39;99711.81;;;14.39;41.74
82807;BME280;72563;44.816;20.484;2024-02-23T07:23:05;99703.06;;;14.21;41.72
82807;BME280;72563;44.816;20.484;2024-02-23T07:25:31;99712.22;;;14.72;40.70
82807;BME280;72563;44.816;20.484;2024-02-23T07:27:57;99704.13;;;14.63;40.69
82807;BME280;72563;44.816;20.484;2024-02-23T07:30:23;99720.06;;;14.85;40.65
82807;BME280;72563;44.816;20.484;2024-02-23T07:32:49;99727.00;;;14.95;40.29
82807;BME280;72563;44.816;20.484;2024-02-23T07:35:15;99731.22;;;14.89;40.24
82807;BME280;72563;44.816;20.484;2024-02-23T07:37:40;99731.53;;;15.03;39.87
82807;BME280;72563;44.816;20.484;2024-02-23T07:40:07;99728.84;;;15.07;39.96
82807;BME280;72563;44.816;20.484;2024-02-23T07:42:33;99727.50;;;15.01;40.22
82807;BME280;72563;44.816;20.484;2024-02-23T07:45:02;99715.63;;;15.00;39.78
82807;BME280;72563;44.816;20.484;2024-02-23T07:47:30;99693.47;;;15.00;40.58
82807;BME280;72563;44.816;20.484;2024-02-23T07:49:57;99718.06;;;15.21;39.92
82807;BME280;72563;44.816;20.484;2024-02-23T07:52:22;99721.03;;;15.31;39.84
82807;BME280;72563;44.816;20.484;2024-02-23T07:54:57;99697.25;;;15.11;40.09
82807;BME280;72563;44.816;20.484;2024-02-23T07:57:23;99712.72;;;15.12;40.39
82807;BME280;72563;44.816;20.484;2024-02-23T07:59:49;99709.16;;;15.31;40.29
82807;BME280;72563;44.816;20.484;2024-02-23T08:02:15;99707.03;;;15.24;40.45
82807;BME280;72563;44.816;20.484;2024-02-23T08:04:42;99710.25;;;15.26;40.05
82807;BME280;72563;44.816;20.484;2024-02-23T08:07:07;99694.56;;;15.15;40.39
82807;BME280;72563;44.816;20.484;2024-02-23T08:09:33;99706.72;;;15.29;40.71
82807;BME280;72563;44.816;20.484;2024-02-23T08:11:59;99690.41;;;15.43;39.92
82807;BME280;72563;44.816;20.484;2024-02-23T08:14:25;99701.72;;;15.35;40.14
82807;BME280;72563;44.816;20.484;2024-02-23T08:16:50;99693.84;;;15.37;40.58
82807;BME280;72563;44.816;20.484;2024-02-23T08:19:16;99697.47;;;15.41;40.12
82807;BME280;72563;44.816;20.484;2024-02-23T08:21:41;99692.22;;;15.55;40.30
82807;BME280;72563;44.816;20.484;2024-02-23T08:24:10;99690.88;;;15.68;40.29
82807;BME280;72563;44.816;20.484;2024-02-23T08:26:35;99691.84;;;15.56;40.55
82807;BME280;72563;44.816;20.484;2024-02-23T08:29:03;99682.09;;;15.24;40.86
82807;BME280;72563;44.816;20.484;2024-02-23T08:31:30;99699.44;;;15.40;41.30
82807;BME280;72563;44.816;20.484;2024-02-23T08:33:55;99675.94;;;15.34;40.83
82807;BME280;72563;44.816;20.484;2024-02-23T08:36:22;99695.28;;;15.50;40.91
82807;BME280;72563;44.816;20.484;2024-02-23T08:38:47;99687.38;;;15.71;41.39
82807;BME280;72563;44.816;20.484;2024-02-23T08:41:13;99677.03;;;15.30;41.90
82807;BME280;72563;44.816;20.484;2024-02-23T08:43:38;99680.28;;;15.13;42.39
82807;BME280;72563;44.816;20.484;2024-02-23T08:46:05;99672.66;;;15.10;42.76
82807;BME280;72563;44.816;20.484;2024-02-23T08:48:31;99661.88;;;15.24;42.14
82807;BME280;72563;44.816;20.484;2024-02-23T08:50:57;99674.31;;;15.33;42.07
82807;BME280;72563;44.816;20.484;2024-02-23T08:53:22;99671.88;;;15.47;41.34
82807;BME280;72563;44.816;20.484;2024-02-23T08:55:48;99654.06;;;15.10;41.63
82807;BME280;72563;44.816;20.484;2024-02-23T08:58:14;99662.94;;;15.38;41.48
82807;BME280;72563;44.816;20.484;2024-02-23T09:00:40;99675.22;;;15.56;40.71
82807;BME280;72563;44.816;20.484;2024-02-23T09:03:05;99686.81;;;15.24;41.88
82807;BME280;72563;44.816;20.484;2024-02-23T09:05:31;99670.66;;;15.45;41.13
82807;BME280;72563;44.816;20.484;2024-02-23T09:07:57;99676.03;;;15.57;41.19
82807;BME280;72563;44.816;20.484;2024-02-23T09:10:22;99690.56;;;15.92;40.22
82807;BME280;72563;44.816;20.484;2024-02-23T09:12:48;99675.97;;;15.99;40.68
82807;BME280;72563;44.816;20.484;2024-02-23T09:15:13;99660.03;;;15.92;40.64
82807;BME280;72563;44.816;20.484;2024-02-23T09:17:42;99679.19;;;16.01;40.06
82807;BME280;72563;44.816;20.484;2024-02-23T09:20:08;99685.84;;;16.19;39.87
82807;BME280;72563;44.816;20.484;2024-02-23T09:22:34;99663.72;;;16.48;38.97
82807;BME280;72563;44.816;20.484;2024-02-23T09:25:01;99681.75;;;16.58;38.74
82807;BME280;72563;44.816;20.484;2024-02-23T09:27:26;99683.03;;;16.41;39.02
82807;BME280;72563;44.816;20.484;2024-02-23T09:29:52;99666.41;;;16.19;39.19
82807;BME280;72563;44.816;20.484;2024-02-23T09:32:17;99676.03;;;16.25;39.26
82807;BME280;72563;44.816;20.484;2024-02-23T09:34:43;99682.09;;;16.30;39.22
82807;BME280;72563;44.816;20.484;2024-02-23T09:37:08;99688.50;;;16.12;40.02
82807;BME280;72563;44.816;20.484;2024-02-23T09:39:35;99669.91;;;16.38;39.29
82807;BME280;72563;44.816;20.484;2024-02-23T09:42:01;99671.16;;;16.41;39.32
82807;BME280;72563;44.816;20.484;2024-02-23T09:44:32;99677.88;;;16.40;39.04
82807;BME280;72563;44.816;20.484;2024-02-23T09:47:03;99678.00;;;16.47;39.19
82807;BME280;72563;44.816;20.484;2024-02-23T09:49:38;99671.50;;;16.39;38.98
82807;BME280;72563;44.816;20.484;2024-02-23T09:52:07;99653.75;;;16.47;38.68
82807;BME280;72563;44.816;20.484;2024-02-23T09:54:36;99663.09;;;16.58;38.68
82807;BME280;72563;44.816;20.484;2024-02-23T09:57:07;99659.09;;;16.56;38.79
82807;BME280;72563;44.816;20.484;2024-02-23T09:59:37;99669.19;;;16.19;39.72
82807;BME280;72563;44.816;20.484;2024-02-23T10:02:10;99654.13;;;16.20;39.24
82807;BME280;72563;44.816;20.484;2024-02-23T10:04:40;99656.69;;;16.06;39.48
82807;BME280;72563;44.816;20.484;2024-02-23T10:07:08;99659.66;;;16.42;38.75
82807;BME280;72563;44.816;20.484;2024-02-23T10:09:33;99662.25;;;16.32;39.31
82807;BME280;72563;44.816;20.484;2024-02-23T10:11:59;99657.16;;;16.11;39.15
82807;BME280;72563;44.816;20.484;2024-02-23T10:14:24;99661.78;;;16.26;39.50
82807;BME280;72563;44.816;20.484;2024-02-23T10:16:50;99639.50;;;16.23;39.52
82807;BME280;72563;44.816;20.484;2024-02-23T10:19:19;99665.00;;;16.28;39.69
82807;BME280;72563;44.816;20.484;2024-02-23T10:21:46;99659.41;;;16.51;39.02
82807;BME280;72563;44.816;20.484;2024-02-23T10:24:11;99652.88;;;16.66;39.29
82807;BME280;72563;44.816;20.484;2024-02-23T10:26:37;99651.88;;;16.78;38.90
82807;BME280;72563;44.816;20.484;2024-02-23T10:29:03;99652.06;;;16.66;38.99
82807;BME280;72563;44.816;20.484;2024-02-23T10:31:34;99652.00;;;16.88;38.74
82807;BME280;72563;44.816;20.484;2024-02-23T10:34:07;99650.97;;;17.00;38.69
82807;BME280;72563;44.816;20.484;2024-02-23T10:36:42;99649.63;;;16.90;38.71
82807;BME280;72563;44.816;20.484;2024-02-23T10:39:09;99649.09;;;16.78;39.00
82807;BME280;72563;44.816;20.484;2024-02-23T10:41:35;99638.00;;;16.81;39.05
82807;BME280;72563;44.816;20.484;2024-02-23T10:44:05;99649.09;;;16.78;39.16
82807;BME280;72563;44.816;20.484;2024-02-23T10:46:32;99643.22;;;16.86;38.61
82807;BME280;72563;44.816;20.484;2024-02-23T10:48:58;99643.19;;;16.83;39.04
82807;BME280;72563;44.816;20.484;2024-02-23T10:51:27;99640.63;;;16.44;39.76
82807;BME280;72563;44.816;20.484;2024-02-23T10:53:53;99637.72;;;16.37;39.79
82807;BME280;72563;44.816;20.484;2024-02-23T10:56:19;99636.97;;;16.37;40.15
82807;BME280;72563;44.816;20.484;2024-02-23T10:58:45;99630.66;;;16.66;39.55
82807;BME280;72563;44.816;20.484;2024-02-23T11:01:12;99629.25;;;16.79;39.34
82807;BME280;72563;44.816;20.484;2024-02-23T11:03:41;99619.72;;;16.80;38.77
82807;BME280;72563;44.816;20.484;2024-02-23T11:06:08;99628.47;;;17.12;38.20
82807;BME280;72563;44.816;20.484;2024-02-23T11:08:34;99611.50;;;17.20;38.12
82807;BME280;72563;44.816;20.484;2024-02-23T11:11:07;99625.53;;;16.98;38.24
82807;BME280;72563;44.816;20.484;2024-02-23T11:13:38;99620.97;;;17.49;37.72
82807;BME280;72563;44.816;20.484;2024-02-23T11:16:08;99618.09;;;17.42;37.19
82807;BME280;72563;44.816;20.484;2024-02-23T11:18:39;99599.63;;;17.64;37.25
82807;BME280;72563;44.816;20.484;2024-02-23T11:21:05;99610.50;;;17.76;36.91
82807;BME280;72563;44.816;20.484;2024-02-23T11:23:42;99607.53;;;18.02;36.57
82807;BME280;72563;44.816;20.484;2024-02-23T11:26:12;99604.50;;;18.24;35.92
82807;BME280;72563;44.816;20.484;2024-02-23T11:28:47;99606.25;;;17.89;35.66
82807;BME280;72563;44.816;20.484;2024-02-23T11:31:14;99591.41;;;18.25;34.97
82807;BME280;72563;44.816;20.484;2024-02-23T11:33:47;99591.94;;;17.90;35.51
82807;BME280;72563;44.816;20.484;2024-02-23T11:36:12;99568.72;;;17.76;35.39
82807;BME280;72563;44.816;20.484;2024-02-23T11:38:47;99580.97;;;18.15;34.62
82807;BME280;72563;44.816;20.484;2024-02-23T11:41:12;99590.19;;;18.22;33.68
82807;BME280;72563;44.816;20.484;2024-02-23T11:43:41;99586.06;;;18.02;34.08
82807;BME280;72563;44.816;20.484;2024-02-23T11:46:07;99578.56;;;18.10;34.07
82807;BME280;72563;44.816;20.484;2024-02-23T11:48:32;99583.25;;;17.55;34.75
82807;BME280;72563;44.816;20.484;2024-02-23T11:50:58;99599.41;;;18.98;49.87
82807;BME280;72563;44.816;20.484;2024-02-23T11:53:24;99566.44;;;20.52;41.55
82807;BME280;72563;44.816;20.484;2024-02-23T11:55:52;99587.16;;;21.59;41.40
82807;BME280;72563;44.816;20.484;2024-02-23T11:58:17;99554.22;;;21.15;31.00
82807;BME280;72563;44.816;20.484;2024-02-23T12:00:43;99578.31;;;21.64;36.55
82807;BME280;72563;44.816;20.484;2024-02-23T12:03:11;99566.38;;;20.70;30.77
82807;BME280;72563;44.816;20.484;2024-02-23T12:05:36;99566.50;;;20.27;31.27
82807;BME280;72563;44.816;20.484;2024-02-23T12:08:02;99566.28;;;20.94;34.07
82807;BME280;72563;44.816;20.484;2024-02-23T12:10:28;99551.88;;;21.65;30.98
82807;BME280;72563;44.816;20.484;2024-02-23T12:12:55;99542.13;;;21.90;30.77
82807;BME280;72563;44.816;20.484;2024-02-23T12:15:22;99541.94;;;22.08;30.70
82807;BME280;72563;44.816;20.484;2024-02-23T12:17:49;99532.06;;;22.37;30.01
82807;BME280;72563;44.816;20.484;2024-02-23T12:20:14;99550.53;;;22.68;27.88
82807;BME280;72563;44.816;20.484;2024-02-23T12:22:41;99540.25;;;22.92;28.15
82807;BME280;72563;44.816;20.484;2024-02-23T12:25:07;99530.81;;;22.75;26.68
82807;BME280;72563;44.816;20.484;2024-02-23T12:27:33;99550.72;;;22.88;27.24
82807;BME280;72563;44.816;20.484;2024-02-23T12:29:59;99519.34;;;22.96;25.89
82807;BME280;72563;44.816;20.484;2024-02-23T12:32:25;99544.50;;;23.03;26.89
82807;BME280;72563;44.816;20.484;2024-02-23T12:34:52;99509.44;;;22.51;28.44
82807;BME280;72563;44.816;20.484;2024-02-23T12:37:17;99554.09;;;22.72;26.57
82807;BME280;72563;44.816;20.484;2024-02-23T12:39:46;99564.75;;;22.88;27.79
82807;BME280;72563;44.816;20.484;2024-02-23T12:42:12;99544.97;;;22.98;27.96
82807;BME280;72563;44.816;20.484;2024-02-23T12:44:37;99565.13;;;23.20;27.87
82807;BME280;72563;44.816;20.484;2024-02-23T12:47:03;99533.94;;;22.84;26.33